createdAt,value
2017-10-29T00:02:22.560Z,8.80
2017-10-29T00:04:50.451Z,8.80
2017-10-29T00:07:18.404Z,8.80
2017-10-29T00:09:46.418Z,8.80
2017-10-29T00:12:14.173Z,8.80
2017-10-29T00:14:42.670Z,8.80
2017-10-29T00:17:10.781Z,8.70
2017-10-29T00:19:39.176Z,8.80
2017-10-29T00:22:06.931Z,8.80
2017-10-29T00:24:35.723Z,8.80
2017-10-29T00:27:03.805Z,8.80
2017-10-29T00:29:33.489Z,8.80
2017-10-29T00:32:01.347Z,8.80
2017-10-29T00:34:29.553Z,8.80
2017-10-29T00:36:58.950Z,8.90
2017-10-29T00:39:27.367Z,8.90
2017-10-29T00:41:55.685Z,8.90
2017-10-29T00:44:23.761Z,8.90
2017-10-29T00:46:52.096Z,8.90
2017-10-29T00:49:20.584Z,8.90
2017-10-29T00:51:48.341Z,8.80
2017-10-29T00:54:16.321Z,8.80
2017-10-29T00:56:45.133Z,8.80
2017-10-29T00:59:13.011Z,8.80
2017-10-29T01:01:40.811Z,8.80
2017-10-29T01:04:08.857Z,8.80
2017-10-29T01:06:37.061Z,8.90
2017-10-29T01:09:05.184Z,8.80
2017-10-29T01:11:32.876Z,8.90
2017-10-29T01:14:00.784Z,8.90
2017-10-29T01:16:28.492Z,9.00
2017-10-29T01:18:56.281Z,9.00
2017-10-29T01:21:24.992Z,9.10
2017-10-29T01:23:53.942Z,9.00
2017-10-29T01:26:23.154Z,9.00
2017-10-29T01:28:51.951Z,9.10
2017-10-29T01:31:20.562Z,9.10
2017-10-29T01:33:48.619Z,9.10
2017-10-29T01:36:16.393Z,9.10
2017-10-29T01:38:44.623Z,9.00
2017-10-29T01:41:12.761Z,8.80
2017-10-29T01:43:40.508Z,8.70
2017-10-29T01:46:08.261Z,8.70
2017-10-29T01:48:37.036Z,8.60
2017-10-29T01:51:05.673Z,8.40
2017-10-29T01:53:33.651Z,8.40
2017-10-29T01:56:02.632Z,8.40
2017-10-29T01:58:30.425Z,8.40
2017-10-29T02:00:58.812Z,8.40
2017-10-29T02:03:27.437Z,8.40
2017-10-29T02:05:55.771Z,8.50
2017-10-29T02:08:24.264Z,8.50
2017-10-29T02:10:52.636Z,8.50
2017-10-29T02:13:21.029Z,8.50
2017-10-29T02:15:48.922Z,8.60
2017-10-29T02:18:17.662Z,8.70
2017-10-29T02:20:45.799Z,8.70
2017-10-29T02:23:13.781Z,8.70
2017-10-29T02:25:41.625Z,8.80
2017-10-29T02:28:10.751Z,8.90
2017-10-29T02:30:38.835Z,8.90
2017-10-29T02:33:06.668Z,8.90
2017-10-29T02:35:34.545Z,8.90
2017-10-29T02:38:02.224Z,9.00
2017-10-29T02:40:30.636Z,8.90
2017-10-29T02:42:58.702Z,9.00
2017-10-29T02:45:26.708Z,9.00
2017-10-29T02:47:54.654Z,9.00
2017-10-29T02:50:22.641Z,9.00
2017-10-29T02:52:50.610Z,9.10
2017-10-29T02:55:20.708Z,9.10
2017-10-29T02:57:49.529Z,9.20
2017-10-29T03:00:17.700Z,9.20
2017-10-29T03:02:45.682Z,9.20
2017-10-29T03:05:14.362Z,9.30
2017-10-29T03:07:42.591Z,9.20
2017-10-29T03:10:10.965Z,9.30
2017-10-29T03:12:38.742Z,9.30
2017-10-29T03:15:07.538Z,9.30
2017-10-29T03:17:35.653Z,9.30
2017-10-29T03:20:04.144Z,9.40
2017-10-29T03:22:32.170Z,9.50
2017-10-29T03:25:00.207Z,9.50
2017-10-29T03:27:28.231Z,9.60
2017-10-29T03:29:56.277Z,9.60
2017-10-29T03:32:25.322Z,9.60
2017-10-29T03:34:54.122Z,9.50
2017-10-29T03:37:21.786Z,9.50
2017-10-29T03:39:50.333Z,9.50
2017-10-29T03:42:18.377Z,9.50
2017-10-29T03:44:48.300Z,9.60
2017-10-29T03:47:16.174Z,9.60
2017-10-29T03:49:44.258Z,9.60
2017-10-29T03:52:12.379Z,9.60
2017-10-29T03:54:40.971Z,9.60
2017-10-29T03:57:10.601Z,9.60
2017-10-29T03:59:38.844Z,9.60
2017-10-29T04:02:06.875Z,9.70
2017-10-29T04:04:35.068Z,9.60
2017-10-29T04:07:03.132Z,9.60
2017-10-29T04:09:31.423Z,9.60
2017-10-29T04:11:59.243Z,9.60
2017-10-29T04:14:27.001Z,9.70
2017-10-29T04:16:55.148Z,9.70
2017-10-29T04:19:23.961Z,9.70
2017-10-29T04:21:53.071Z,9.70
2017-10-29T04:24:21.197Z,9.80
2017-10-29T04:26:50.233Z,9.90
2017-10-29T04:29:18.763Z,9.80
2017-10-29T04:31:47.287Z,9.80
2017-10-29T04:34:15.302Z,9.80
2017-10-29T04:36:43.481Z,9.90
2017-10-29T04:39:11.646Z,9.90
2017-10-29T04:41:39.394Z,9.90
2017-10-29T04:44:07.403Z,9.90
2017-10-29T04:46:35.191Z,9.90
2017-10-29T04:49:03.150Z,9.90
2017-10-29T04:51:31.264Z,9.90
2017-10-29T04:53:59.924Z,9.90
2017-10-29T04:56:28.172Z,10.00
2017-10-29T04:58:56.388Z,10.00
2017-10-29T05:01:24.505Z,10.00
2017-10-29T05:03:52.266Z,10.00
2017-10-29T05:06:20.744Z,10.10
2017-10-29T05:08:49.227Z,10.00
2017-10-29T05:11:17.047Z,10.00
2017-10-29T05:13:46.071Z,10.10
2017-10-29T05:16:14.735Z,10.10
2017-10-29T05:18:42.582Z,10.10
2017-10-29T05:21:11.293Z,10.10
2017-10-29T05:23:39.226Z,10.10
2017-10-29T05:26:07.755Z,10.10
2017-10-29T05:28:35.791Z,10.10
2017-10-29T05:31:04.112Z,10.10
2017-10-29T05:33:32.221Z,10.20
2017-10-29T05:35:59.940Z,10.10
2017-10-29T05:38:27.978Z,10.10
2017-10-29T05:40:55.982Z,10.00
2017-10-29T05:43:24.069Z,10.00
2017-10-29T05:45:52.536Z,10.00
2017-10-29T05:48:20.431Z,9.90
2017-10-29T05:50:48.302Z,9.80
2017-10-29T05:53:16.389Z,9.80
2017-10-29T05:55:45.745Z,9.80
2017-10-29T05:58:13.780Z,9.80
2017-10-29T06:00:41.746Z,9.80
2017-10-29T06:03:10.495Z,9.80
2017-10-29T06:05:38.743Z,9.70
2017-10-29T06:08:06.578Z,9.80
2017-10-29T06:10:35.027Z,9.80
2017-10-29T06:13:03.113Z,9.80
2017-10-29T06:15:30.830Z,9.80
2017-10-29T06:17:59.310Z,9.80
2017-10-29T06:20:28.357Z,9.80
2017-10-29T06:22:57.276Z,9.80
2017-10-29T06:25:25.951Z,9.90
2017-10-29T06:27:54.145Z,9.90
2017-10-29T06:30:23.183Z,10.00
2017-10-29T06:32:51.390Z,10.00
2017-10-29T06:35:20.531Z,10.00
2017-10-29T06:37:49.042Z,10.00
2017-10-29T06:40:16.867Z,9.90
2017-10-29T06:42:44.702Z,9.90
2017-10-29T06:45:14.325Z,9.90
2017-10-29T06:47:42.713Z,9.90
2017-10-29T06:50:10.540Z,9.80
2017-10-29T06:52:38.316Z,9.80
2017-10-29T06:55:07.113Z,9.80
2017-10-29T06:57:35.743Z,9.70
2017-10-29T07:00:03.527Z,9.70
2017-10-29T07:02:31.616Z,9.70
2017-10-29T07:04:59.437Z,9.70
2017-10-29T07:07:27.428Z,9.70
2017-10-29T07:09:55.244Z,9.70
2017-10-29T07:12:22.997Z,9.70
2017-10-29T07:14:51.822Z,9.70
2017-10-29T07:17:19.905Z,9.70
2017-10-29T07:19:47.730Z,9.60
2017-10-29T07:22:15.726Z,9.60
2017-10-29T07:24:43.629Z,9.60
2017-10-29T07:27:12.117Z,9.50
2017-10-29T07:29:40.299Z,9.40
2017-10-29T07:32:08.323Z,9.40
2017-10-29T07:34:36.361Z,9.30
2017-10-29T07:37:04.858Z,9.40
2017-10-29T07:39:33.144Z,9.40
2017-10-29T07:42:00.876Z,9.40
2017-10-29T07:44:29.719Z,9.40
2017-10-29T07:46:57.959Z,9.40
2017-10-29T07:49:25.714Z,9.40
2017-10-29T07:51:54.693Z,9.40
2017-10-29T07:54:23.431Z,9.40
2017-10-29T07:56:51.221Z,9.40
2017-10-29T07:59:19.081Z,9.40
2017-10-29T08:01:46.802Z,9.50
2017-10-29T08:04:15.320Z,9.50
2017-10-29T08:06:43.140Z,9.50
2017-10-29T08:09:11.236Z,9.50
2017-10-29T08:11:39.066Z,9.60
2017-10-29T08:14:06.982Z,9.60
2017-10-29T08:16:34.976Z,9.60
2017-10-29T08:19:02.743Z,9.60
2017-10-29T08:21:32.227Z,9.60
2017-10-29T08:24:01.268Z,9.60
2017-10-29T08:26:29.173Z,9.60
2017-10-29T08:28:57.272Z,9.70
2017-10-29T08:31:25.349Z,9.70
2017-10-29T08:33:53.031Z,9.70
2017-10-29T08:36:20.917Z,9.80
2017-10-29T08:38:49.327Z,9.80
2017-10-29T08:41:17.204Z,9.80
2017-10-29T08:43:45.284Z,9.70
2017-10-29T08:46:13.360Z,9.70
2017-10-29T08:48:41.047Z,9.80
2017-10-29T08:51:09.381Z,9.80
2017-10-29T08:53:37.302Z,9.80
2017-10-29T08:56:05.931Z,9.80
2017-10-29T08:58:33.788Z,9.80
2017-10-29T09:01:02.543Z,9.90
2017-10-29T09:03:30.317Z,9.80
2017-10-29T09:05:59.322Z,9.80
2017-10-29T09:08:26.987Z,9.80
2017-10-29T09:10:55.964Z,9.90
2017-10-29T09:13:24.907Z,9.90
2017-10-29T09:15:52.997Z,9.90
2017-10-29T09:18:20.750Z,10.00
2017-10-29T09:20:48.945Z,10.00
2017-10-29T09:23:17.220Z,10.00
2017-10-29T09:25:45.600Z,10.00
2017-10-29T09:28:13.803Z,10.00
2017-10-29T09:30:41.416Z,10.00
2017-10-29T09:33:09.664Z,10.00
2017-10-29T09:35:37.465Z,9.90
2017-10-29T09:38:05.378Z,9.90
2017-10-29T09:40:34.425Z,9.90
2017-10-29T09:43:02.320Z,9.70
2017-10-29T09:45:30.290Z,9.80
2017-10-29T09:47:58.295Z,9.80
2017-10-29T09:50:26.488Z,9.80
2017-10-29T09:52:54.417Z,9.80
2017-10-29T09:55:22.526Z,9.80
2017-10-29T09:57:50.612Z,9.80
2017-10-29T10:00:18.895Z,9.80
2017-10-29T10:02:46.661Z,9.70
2017-10-29T10:05:15.911Z,9.80
2017-10-29T10:07:44.104Z,9.70
2017-10-29T10:10:12.196Z,9.70
2017-10-29T10:12:40.697Z,9.60
2017-10-29T10:15:08.666Z,9.60
2017-10-29T10:17:36.906Z,9.70
2017-10-29T10:20:04.763Z,9.80
2017-10-29T10:22:33.941Z,9.70
2017-10-29T10:25:01.843Z,9.80
2017-10-29T10:27:29.991Z,9.80
2017-10-29T10:29:58.281Z,9.90
2017-10-29T10:32:26.365Z,9.80
2017-10-29T10:34:54.493Z,9.90
2017-10-29T10:37:23.322Z,9.80
2017-10-29T10:39:50.999Z,9.80
2017-10-29T10:42:18.919Z,9.90
2017-10-29T10:44:47.039Z,9.90
2017-10-29T10:47:16.204Z,10.00
2017-10-29T10:49:43.953Z,9.90
2017-10-29T10:52:12.300Z,10.00
2017-10-29T10:54:40.405Z,9.80
2017-10-29T10:57:08.072Z,9.80
2017-10-29T10:59:35.749Z,9.80
2017-10-29T11:02:03.731Z,9.80
2017-10-29T11:04:31.880Z,9.90
2017-10-29T11:06:59.996Z,9.90
2017-10-29T11:09:28.465Z,10.00
2017-10-29T11:12:00.990Z,10.00
2017-10-29T11:14:29.596Z,9.70
2017-10-29T11:16:57.891Z,9.70
2017-10-29T11:19:25.807Z,9.70
2017-10-29T11:21:53.614Z,9.70
2017-10-29T11:24:21.459Z,9.80
2017-10-29T11:26:49.470Z,9.90
2017-10-29T11:29:17.075Z,9.90
2017-10-29T11:31:45.975Z,10.00
2017-10-29T11:34:13.687Z,9.90
2017-10-29T11:36:41.357Z,10.10
2017-10-29T11:39:09.305Z,10.20
2017-10-29T11:41:37.267Z,10.30
2017-10-29T11:44:05.180Z,10.40
2017-10-29T11:46:34.030Z,10.50
2017-10-29T11:49:01.630Z,10.50
2017-10-29T11:51:29.688Z,10.50
2017-10-29T11:53:57.651Z,10.70
2017-10-29T11:56:26.014Z,10.80
2017-10-29T11:58:54.224Z,11.10
2017-10-29T12:01:22.270Z,11.20
2017-10-29T12:03:50.114Z,11.10
2017-10-29T12:06:17.884Z,11.10
2017-10-29T12:08:46.797Z,11.00
2017-10-29T12:11:15.406Z,11.00
2017-10-29T12:13:45.026Z,10.90
2017-10-29T12:16:13.167Z,10.80
2017-10-29T12:18:40.927Z,10.90
2017-10-29T12:21:08.913Z,10.90
2017-10-29T12:23:36.638Z,10.90
2017-10-29T12:26:04.685Z,11.10
2017-10-29T12:28:32.724Z,11.10
2017-10-29T12:31:00.949Z,11.20
2017-10-29T12:33:28.756Z,11.10
2017-10-29T12:35:57.000Z,11.00
2017-10-29T12:38:24.959Z,11.00
2017-10-29T12:40:53.575Z,11.00
2017-10-29T12:43:22.403Z,11.00
2017-10-29T12:45:51.121Z,10.90
2017-10-29T12:48:18.939Z,10.90
2017-10-29T12:50:46.596Z,11.10
2017-10-29T12:53:15.248Z,11.00
2017-10-29T12:55:43.739Z,11.00
2017-10-29T12:58:11.467Z,11.00
2017-10-29T13:00:39.288Z,10.80
2017-10-29T13:03:07.565Z,10.70
2017-10-29T13:05:35.997Z,10.40
2017-10-29T13:08:03.902Z,10.30
2017-10-29T13:10:32.158Z,10.50
2017-10-29T13:12:59.980Z,10.80
2017-10-29T13:15:28.483Z,10.80
2017-10-29T13:17:57.642Z,10.90
2017-10-29T13:20:26.660Z,11.10
2017-10-29T13:22:54.787Z,11.10
2017-10-29T13:25:22.678Z,11.10
2017-10-29T13:27:50.646Z,11.60
2017-10-29T13:30:19.058Z,12.50
2017-10-29T13:32:47.106Z,12.60
2017-10-29T13:35:14.809Z,12.80
2017-10-29T13:37:42.699Z,13.00
2017-10-29T13:40:10.454Z,13.10
2017-10-29T13:42:38.697Z,13.00
2017-10-29T13:45:06.790Z,12.90
2017-10-29T13:47:34.765Z,12.60
2017-10-29T13:50:03.343Z,12.20
2017-10-29T13:52:31.384Z,11.90
2017-10-29T13:54:59.281Z,11.80
2017-10-29T13:57:27.139Z,12.00
2017-10-29T13:59:55.509Z,12.00
2017-10-29T14:02:23.828Z,11.80
2017-10-29T14:04:51.832Z,11.60
2017-10-29T14:07:19.854Z,11.50
2017-10-29T14:09:47.614Z,11.30
2017-10-29T14:12:15.887Z,11.20
2017-10-29T14:14:44.055Z,11.10
2017-10-29T14:17:12.262Z,11.20
2017-10-29T14:19:40.422Z,11.10
2017-10-29T14:22:08.632Z,11.40
2017-10-29T14:24:36.909Z,11.80
2017-10-29T14:27:04.918Z,11.90
2017-10-29T14:29:33.185Z,12.40
2017-10-29T14:32:01.080Z,12.60
2017-10-29T14:34:28.885Z,12.40
2017-10-29T14:36:56.653Z,12.20
2017-10-29T14:39:24.565Z,12.30
2017-10-29T14:41:52.925Z,12.00
2017-10-29T14:44:21.042Z,12.00
2017-10-29T14:46:49.768Z,12.00
2017-10-29T14:49:19.264Z,11.70
2017-10-29T14:51:47.226Z,11.80
2017-10-29T14:54:16.125Z,11.10
2017-10-29T14:56:43.858Z,11.10
2017-10-29T14:59:11.847Z,10.80
2017-10-29T15:01:39.941Z,10.80
2017-10-29T15:04:07.991Z,10.60
2017-10-29T15:06:35.741Z,10.60
2017-10-29T15:09:03.876Z,10.50
2017-10-29T15:11:31.851Z,10.50
2017-10-29T15:14:00.132Z,10.50
2017-10-29T15:16:27.756Z,10.20
2017-10-29T15:18:55.799Z,10.20
2017-10-29T15:21:24.271Z,10.10
2017-10-29T15:23:52.386Z,10.00
2017-10-29T15:26:20.449Z,9.90
2017-10-29T15:28:48.423Z,10.10
2017-10-29T15:31:16.093Z,10.20
2017-10-29T15:33:44.209Z,10.30
2017-10-29T15:36:11.895Z,10.40
2017-10-29T15:38:41.076Z,10.60
2017-10-29T15:41:09.338Z,10.60
2017-10-29T15:43:38.107Z,10.70
2017-10-29T15:46:05.846Z,10.80
2017-10-29T15:48:33.535Z,10.70
2017-10-29T15:51:01.343Z,10.80
2017-10-29T15:53:29.985Z,10.70
2017-10-29T15:55:57.912Z,10.70
2017-10-29T15:58:26.592Z,10.70
2017-10-29T16:00:54.864Z,10.80
2017-10-29T16:03:22.686Z,10.70
2017-10-29T16:05:51.039Z,10.70
2017-10-29T16:08:19.080Z,10.70
2017-10-29T16:10:47.619Z,10.60
2017-10-29T16:13:15.746Z,10.60
2017-10-29T16:15:43.972Z,10.50
2017-10-29T16:18:11.910Z,10.40
2017-10-29T16:20:40.237Z,10.30
2017-10-29T16:23:07.913Z,10.30
2017-10-29T16:25:35.818Z,10.20
2017-10-29T16:28:03.606Z,10.10
2017-10-29T16:30:31.380Z,10.00
2017-10-29T16:32:59.461Z,9.90
2017-10-29T16:35:27.729Z,9.80
2017-10-29T16:37:55.641Z,9.60
2017-10-29T16:40:23.524Z,9.50
2017-10-29T16:42:51.462Z,9.40
2017-10-29T16:45:20.338Z,9.20
2017-10-29T16:47:48.843Z,8.90
2017-10-29T16:50:17.569Z,8.90
2017-10-29T16:52:45.598Z,8.90
2017-10-29T16:55:14.051Z,8.80
2017-10-29T16:57:42.132Z,8.60
2017-10-29T17:00:11.262Z,8.30
2017-10-29T17:02:38.975Z,8.30
2017-10-29T17:05:07.203Z,8.30
2017-10-29T17:07:35.242Z,8.30
2017-10-29T17:10:03.754Z,7.90
2017-10-29T17:12:31.966Z,7.90
2017-10-29T17:15:00.363Z,7.90
2017-10-29T17:17:28.109Z,7.90
2017-10-29T17:19:56.748Z,7.90
2017-10-29T17:22:25.342Z,7.90
2017-10-29T17:24:53.904Z,7.90
2017-10-29T17:27:21.646Z,7.80
2017-10-29T17:29:49.913Z,7.90
2017-10-29T17:32:18.391Z,8.00
2017-10-29T17:34:46.175Z,7.90
2017-10-29T17:37:14.019Z,8.00
2017-10-29T17:39:42.236Z,8.10
2017-10-29T17:42:10.511Z,8.00
2017-10-29T17:44:39.597Z,8.00
2017-10-29T17:47:08.036Z,8.00
2017-10-29T17:49:35.727Z,8.20
2017-10-29T17:52:03.987Z,8.30
2017-10-29T17:54:31.674Z,8.40
2017-10-29T17:56:59.664Z,8.60
2017-10-29T17:59:28.191Z,8.60
2017-10-29T18:01:55.784Z,8.70
2017-10-29T18:04:24.244Z,8.70
2017-10-29T18:06:51.879Z,8.70
2017-10-29T18:09:19.583Z,8.70
2017-10-29T18:11:47.791Z,8.50
2017-10-29T18:14:15.542Z,8.30
2017-10-29T18:16:43.270Z,8.10
2017-10-29T18:19:11.651Z,8.00
2017-10-29T18:21:39.963Z,7.80
2017-10-29T18:24:08.181Z,7.60
2017-10-29T18:26:35.975Z,7.50
2017-10-29T18:29:04.044Z,7.40
2017-10-29T18:31:32.717Z,7.40
2017-10-29T18:34:00.803Z,7.40
2017-10-29T18:36:28.779Z,7.30
2017-10-29T18:38:56.899Z,7.20
2017-10-29T18:41:24.925Z,7.20
2017-10-29T18:43:53.082Z,7.30
2017-10-29T18:46:21.130Z,7.10
2017-10-29T18:48:48.915Z,7.10
2017-10-29T18:51:16.907Z,7.10
2017-10-29T18:53:44.707Z,7.00
2017-10-29T18:56:12.781Z,7.00
2017-10-29T18:58:40.654Z,6.90
2017-10-29T19:01:08.995Z,6.80
2017-10-29T19:03:37.333Z,6.80
2017-10-29T19:06:05.353Z,6.80
2017-10-29T19:08:34.098Z,6.70
2017-10-29T19:11:02.471Z,6.70
2017-10-29T19:13:31.049Z,6.70
2017-10-29T19:15:58.772Z,6.70
2017-10-29T19:18:27.436Z,6.80
2017-10-29T19:20:55.228Z,6.80
2017-10-29T19:23:23.670Z,6.80
2017-10-29T19:25:51.465Z,6.80
2017-10-29T19:28:19.272Z,6.90
2017-10-29T19:30:47.165Z,6.90
2017-10-29T19:33:15.216Z,6.80
2017-10-29T19:35:43.348Z,6.80
2017-10-29T19:38:13.090Z,6.90
2017-10-29T19:40:41.595Z,6.80
2017-10-29T19:43:10.012Z,6.80
2017-10-29T19:45:38.799Z,6.70
2017-10-29T19:48:06.879Z,6.70
2017-10-29T19:50:34.595Z,6.70
2017-10-29T19:53:02.414Z,6.80
2017-10-29T19:55:31.701Z,6.70
2017-10-29T19:57:59.613Z,6.70
2017-10-29T20:00:27.446Z,6.70
2017-10-29T20:02:55.219Z,6.60
2017-10-29T20:05:23.612Z,6.50
2017-10-29T20:07:51.347Z,6.50
2017-10-29T20:10:19.809Z,6.60
2017-10-29T20:12:47.883Z,6.40
2017-10-29T20:15:15.835Z,6.40
2017-10-29T20:17:44.049Z,6.30
2017-10-29T20:20:13.141Z,6.30
2017-10-29T20:22:41.212Z,6.30
2017-10-29T20:25:09.350Z,6.30
2017-10-29T20:27:37.553Z,6.20
2017-10-29T20:30:06.453Z,6.30
2017-10-29T20:32:34.298Z,6.30
2017-10-29T20:35:02.900Z,6.20
2017-10-29T20:37:32.468Z,6.10
2017-10-29T20:40:01.207Z,6.10
2017-10-29T20:42:29.207Z,6.00
2017-10-29T20:44:57.213Z,6.00
2017-10-29T20:47:26.273Z,5.90
2017-10-29T20:49:54.417Z,5.90
2017-10-29T20:52:22.371Z,5.90
2017-10-29T20:54:50.023Z,5.90
2017-10-29T20:57:17.853Z,6.00
2017-10-29T20:59:45.614Z,5.90
2017-10-29T21:02:13.829Z,5.80
2017-10-29T21:04:42.962Z,5.90
2017-10-29T21:07:10.880Z,5.90
2017-10-29T21:09:38.961Z,5.90
2017-10-29T21:12:07.842Z,5.90
2017-10-29T21:14:36.540Z,5.90
2017-10-29T21:17:04.262Z,5.90
2017-10-29T21:19:32.299Z,5.90
2017-10-29T21:22:00.320Z,5.80
2017-10-29T21:24:28.112Z,5.80
2017-10-29T21:26:56.454Z,5.80
2017-10-29T21:29:24.091Z,5.80
2017-10-29T21:31:52.051Z,5.70
2017-10-29T21:34:20.252Z,5.70
2017-10-29T21:36:49.649Z,5.70
2017-10-29T21:39:18.073Z,5.60
2017-10-29T21:41:45.855Z,5.60
2017-10-29T21:44:14.012Z,5.50
2017-10-29T21:46:42.016Z,5.40
2017-10-29T21:49:10.116Z,5.30
2017-10-29T21:51:37.856Z,5.30
2017-10-29T21:54:05.719Z,5.30
2017-10-29T21:56:33.798Z,5.40
2017-10-29T21:59:01.490Z,5.40
2017-10-29T22:01:29.196Z,5.50
2017-10-29T22:03:57.433Z,5.50
2017-10-29T22:06:25.227Z,5.50
2017-10-29T22:08:52.906Z,5.50
2017-10-29T22:11:20.654Z,5.50
2017-10-29T22:13:49.210Z,5.50
2017-10-29T22:16:17.144Z,5.40
2017-10-29T22:18:45.132Z,5.40
2017-10-29T22:21:12.937Z,5.40
2017-10-29T22:23:41.600Z,5.30
2017-10-29T22:26:09.707Z,5.30
2017-10-29T22:28:37.400Z,5.20
2017-10-29T22:31:05.196Z,5.20
2017-10-29T22:33:32.971Z,5.20
2017-10-29T22:36:01.534Z,5.10
2017-10-29T22:38:29.754Z,5.10
2017-10-29T22:40:57.466Z,5.10
2017-10-29T22:43:25.239Z,5.10
2017-10-29T22:45:53.857Z,5.10
2017-10-29T22:48:21.701Z,5.10
2017-10-29T22:50:50.335Z,5.10
2017-10-29T22:53:18.310Z,5.10
2017-10-29T22:55:46.543Z,5.10
2017-10-29T22:58:14.268Z,5.10
2017-10-29T23:00:42.760Z,5.10
2017-10-29T23:03:11.927Z,5.10
2017-10-29T23:08:11.646Z,5.20
2017-10-29T23:10:39.151Z,5.10
2017-10-29T23:13:06.643Z,5.10
2017-10-29T23:15:34.192Z,5.00
2017-10-29T23:18:01.677Z,5.00
2017-10-29T23:20:29.222Z,5.00
2017-10-29T23:22:56.803Z,4.90
2017-10-29T23:25:24.328Z,4.90
2017-10-29T23:27:51.832Z,4.90
2017-10-29T23:30:19.372Z,4.90
2017-10-29T23:32:46.898Z,4.90
2017-10-29T23:35:14.429Z,5.00
2017-10-29T23:37:41.929Z,5.10
2017-10-29T23:40:09.433Z,5.20
2017-10-29T23:42:36.965Z,5.30
2017-10-29T23:45:04.475Z,5.40
2017-10-29T23:47:32.045Z,5.60
2017-10-29T23:49:59.548Z,5.70
2017-10-29T23:52:27.102Z,5.80
2017-10-29T23:54:54.648Z,5.90
2017-10-29T23:57:22.179Z,6.00
2017-10-29T23:59:50.482Z,6.20
